| time (UTC) | temp F | wind direction | speed MPH | gust MPH | rain 1hr in | rain 24hr in | rain mn in | humidity % | barometer mb |
| 20260902230048 | 88 | 186 | 2.0 | 7.0 | 0.00 | 0.00 | 0.00 | 65 | 1016.1 |
| 20260902224545 | 89 | 189 | 3.0 | 6.0 | 0.00 | 0.00 | 0.00 | 63 | 1016.1 |
| 20260902223044 | 89 | 205 | 2.0 | 6.0 | 0.00 | 0.00 | 0.00 | 63 | 1016.1 |
| 20260902221543 | 90 | 225 | 2.0 | 9.0 | 0.00 | 0.00 | 0.00 | 60 | 1016.1 |
| 20260902220042 | 90 | 207 | 4.0 | 10.0 | 0.00 | 0.00 | 0.00 | 59 | 1016.1 |
| 20260902214542 | 91 | 148 | 4.0 | 7.0 | 0.00 | 0.00 | 0.00 | 61 | 1016.1 |
| 20260902213041 | 90 | 179 | 2.0 | 9.0 | 0.00 | 0.00 | 0.00 | 62 | 1016.2 |
| 20260902211540 | 91 | 188 | 3.0 | 11.0 | 0.00 | 0.00 | 0.00 | 61 | 1016.2 |
| 20260902210039 | 91 | 207 | 3.0 | 9.0 | 0.00 | 0.00 | 0.00 | 59 | 1016.3 |
| 20260902204538 | 92 | 201 | 2.0 | 10.0 | 0.00 | 0.00 | 0.00 | 60 | 1016.4 |
| 20260902203036 | 92 | 193 | 4.0 | 11.0 | 0.00 | 0.00 | 0.00 | 61 | 1016.6 |
| 20260902201537 | 91 | 199 | 6.0 | 14.0 | 0.00 | 0.00 | 0.00 | 59 | 1016.6 |
| 20260902200033 | 91 | 197 | 4.0 | 12.0 | 0.00 | 0.00 | 0.00 | 62 | 1016.9 |
| 20260902194532 | 90 | 205 | 1.0 | 4.0 | 0.00 | 0.00 | 0.00 | 65 | 1016.9 |
| 20260902193028 | 87 | 227 | 1.0 | 3.0 | 0.00 | 0.00 | 0.00 | 72 | 1017.2 |
| 20260902191528 | 88 | 283 | 1.0 | 2.0 | 0.00 | 0.00 | 0.00 | 75 | 1017.3 |
| 20260902190029 | 88 | 283 | 0.0 | 2.0 | 0.00 | 0.00 | 0.00 | 74 | 1017.5 |
| 20260902184527 | 89 | 283 | 0.0 | 3.0 | 0.00 | 0.00 | 0.00 | 71 | 1017.5 |
| 20260902183027 | 91 | 207 | 2.0 | 5.0 | 0.00 | 0.00 | 0.00 | 63 | 1017.6 |
| 20260902181525 | 91 | 188 | 4.0 | 7.0 | 0.00 | 0.00 | 0.00 | 64 | 1017.9 |
| 20260902180022 | 90 | 198 | 3.0 | 7.0 | 0.00 | 0.00 | 0.00 | 65 | 1018.1 |
| 20260902174520 | 89 | 208 | 2.0 | 7.0 | 0.00 | 0.00 | 0.00 | 67 | 1018.3 |
| 20260902173033 | 89 | 205 | 2.0 | 6.0 | 0.00 | 0.00 | 0.00 | 70 | 1018.5 |
| 20260902171516 | 88 | 199 | 2.0 | 7.0 | 0.00 | 0.00 | 0.00 | 71 | 1018.5 |
| 20260902170013 | 88 | 232 | 3.0 | 8.0 | 0.00 | 0.00 | 0.00 | 71 | 1018.5 |
| 20260902164510 | 87 | 152 | 2.0 | 5.0 | 0.00 | 0.00 | 0.00 | 73 | 1018.7 |
| 20260902163008 | 87 | 163 | 1.0 | 5.0 | 0.00 | 0.00 | 0.00 | 73 | 1018.8 |
| 20260902161505 | 86 | 183 | 2.0 | 7.0 | 0.00 | 0.00 | 0.00 | 74 | 1019.0 |
| 20260902160005 | 85 | 177 | 3.0 | 7.0 | 0.00 | 0.00 | 0.00 | 75 | 1019.0 |
| 20260902154501 | 85 | 211 | 4.0 | 6.0 | 0.00 | 0.00 | 0.00 | 75 | 1019.1 |
| 20260902153059 | 84 | 159 | 1.0 | 6.0 | 0.00 | 0.00 | 0.00 | 78 | 1019.3 |
| 20260902151604 | 83 | 202 | 3.0 | 6.0 | 0.00 | 0.00 | 0.00 | 78 | 1019.2 |
| 20260902150051 | 81 | 250 | 1.0 | 7.0 | 0.00 | 0.00 | 0.00 | 79 | 1019.2 |
| 20260902144548 | 81 | 188 | 2.0 | 7.0 | 0.00 | 0.00 | 0.00 | 81 | 1019.2 |
| 20260902143048 | 80 | 269 | 3.0 | 7.0 | 0.00 | 0.00 | 0.00 | 81 | 1019.1 |
| 20260902141552 | 79 | 221 | 3.0 | 6.0 | 0.00 | 0.00 | 0.00 | 82 | 1019.1 |
| 20260902140047 | 79 | 190 | 3.0 | 8.0 | 0.00 | 0.00 | 0.00 | 82 | 1019.1 |
| 20260902134549 | 78 | 188 | 2.0 | 7.0 | 0.00 | 0.00 | 0.00 | 83 | 1019.1 |
| 20260902133052 | 78 | 248 | 2.0 | 8.0 | 0.00 | 0.00 | 0.00 | 83 | 1019.0 |
| 20260902131543 | 77 | 198 | 2.0 | 6.0 | 0.00 | 0.00 | 0.00 | 85 | 1018.9 |
| 20260902130042 | 76 | 194 | 3.0 | 7.0 | 0.00 | 0.00 | 0.00 | 87 | 1018.7 |
| 20260902124541 | 75 | 182 | 3.0 | 7.0 | 0.00 | 0.00 | 0.00 | 87 | 1018.8 |
| 20260902123046 | 74 | 240 | 3.0 | 6.0 | 0.00 | 0.00 | 0.00 | 88 | 1018.7 |
| 20260902121538 | 74 | 235 | 2.0 | 7.0 | 0.00 | 0.00 | 0.00 | 89 | 1018.6 |
| 20260902120043 | 73 | 184 | 2.0 | 5.0 | 0.00 | 0.00 | 0.00 | 89 | 1018.7 |
| 20260902114549 | 72 | 180 | 3.0 | 6.0 | 0.00 | 0.00 | 0.00 | 90 | 1018.6 |
| 20260902113038 | 72 | 180 | 2.0 | 5.0 | 0.00 | 0.00 | 0.00 | 91 | 1018.5 |
| 20260902111542 | 71 | 182 | 2.0 | 4.0 | 0.00 | 0.00 | 0.00 | 91 | 1018.5 |
| 20260902110055 | 71 | 184 | 2.0 | 5.0 | 0.00 | 0.00 | 0.00 | 91 | 1018.5 |
| 20260902104533 | 71 | 188 | 0.0 | 3.0 | 0.00 | 0.00 | 0.00 | 91 | 1018.3 |
| 20260902103036 | 72 | 201 | 1.0 | 4.0 | 0.00 | 0.00 | 0.00 | 91 | 1018.3 |
| 20260902101531 | 72 | 184 | 2.0 | 4.0 | 0.00 | 0.00 | 0.00 | 91 | 1018.3 |
| 20260902100034 | 71 | 171 | 1.0 | 5.0 | 0.00 | 0.00 | 0.00 | 91 | 1018.3 |
| 20260902094538 | 71 | 182 | 1.0 | 3.0 | 0.00 | 0.00 | 0.00 | 91 | 1018.3 |
| 20260902093029 | 71 | 182 | 0.0 | 3.0 | 0.00 | 0.00 | 0.00 | 91 | 1018.3 |
| 20260902091529 | 71 | 182 | 0.0 | 2.0 | 0.00 | 0.00 | 0.00 | 91 | 1018.3 |
| 20260902090029 | 72 | 182 | 1.0 | 3.0 | 0.00 | 0.00 | 0.00 | 91 | 1018.3 |
| 20260902084537 | 72 | 182 | 1.0 | 3.0 | 0.00 | 0.00 | 0.00 | 91 | 1018.2 |
| 20260902083025 | 72 | 182 | 0.0 | 2.0 | 0.00 | 0.00 | 0.00 | 91 | 1018.2 |
| 20260902081526 | 72 | 182 | 1.0 | 3.0 | 0.00 | 0.00 | 0.00 | 91 | 1018.2 |
| 20260902080023 | 72 | 182 | 0.0 | 2.0 | 0.00 | 0.00 | 0.00 | 91 | 1018.1 |
| 20260902074523 | 72 | 182 | 0.0 | 2.0 | 0.00 | 0.00 | 0.00 | 91 | 1018.0 |
| 20260902073022 | 72 | 182 | 0.0 | 0.0 | 0.00 | 0.00 | 0.00 | 91 | 1018.0 |
| 20260902071532 | 72 | 182 | 0.0 | 0.0 | 0.00 | 0.00 | 0.00 | 91 | 1018.0 |
| 20260902070019 | 72 | 182 | 0.0 | 0.0 | 0.00 | 0.00 | 0.00 | 91 | 1017.9 |
| 20260902064524 | 73 | 182 | 0.0 | 0.0 | 0.00 | 0.00 | 0.00 | 90 | 1017.9 |
| 20260902063028 | 73 | 182 | 0.0 | 0.0 | 0.00 | 0.00 | 0.00 | 90 | 1017.9 |
| 20260902061514 | 73 | 182 | 0.0 | 1.0 | 0.00 | 0.00 | 0.00 | 90 | 1017.8 |
| 20260902060012 | 74 | 182 | 0.0 | 3.0 | 0.00 | 0.00 | 0.00 | 89 | 1017.6 |
| 20260902054518 | 74 | 182 | 0.0 | 0.0 | 0.00 | 0.00 | 0.00 | 89 | 1017.7 |
| 20260902053016 | 76 | 182 | 0.0 | 3.0 | 0.00 | 0.00 | 0.00 | 87 | 1017.6 |
| 20260902051502 | 77 | 182 | 0.0 | 3.0 | 0.00 | 0.00 | 0.00 | 86 | 1017.5 |
| 20260902050101 | 77 | 196 | 1.0 | 4.0 | 0.00 | 0.00 | 0.00 | 84 | 1017.5 |
| 20260902044556 | 78 | 202 | 1.0 | 4.0 | 0.00 | 0.00 | 0.00 | 83 | 1017.5 |
| 20260902043059 | 80 | 194 | 2.0 | 5.0 | 0.00 | 0.00 | 0.00 | 81 | 1017.7 |
| 20260902041548 | 80 | 199 | 2.0 | 8.0 | 0.00 | 0.00 | 0.00 | 80 | 1017.5 |
| 20260902040045 | 81 | 217 | 2.0 | 8.0 | 0.00 | 0.00 | 0.00 | 78 | 1017.3 |
| 20260902034545 | 80 | 161 | 2.0 | 6.0 | 0.00 | 0.00 | 0.00 | 79 | 1017.1 |
| 20260902033057 | 81 | 215 | 2.0 | 7.0 | 0.00 | 0.00 | 0.00 | 79 | 1017.2 |
| 20260902031543 | 81 | 232 | 2.0 | 7.0 | 0.00 | 0.00 | 0.00 | 79 | 1017.0 |
| 20260902030043 | 80 | 211 | 3.0 | 8.0 | 0.00 | 0.00 | 0.00 | 79 | 1016.8 |
| 20260902024543 | 80 | 186 | 2.0 | 6.0 | 0.00 | 0.00 | 0.00 | 81 | 1016.9 |
| 20260902023046 | 80 | 178 | 2.0 | 6.0 | 0.00 | 0.00 | 0.00 | 82 | 1017.0 |
| 20260902021541 | 80 | 187 | 2.0 | 6.0 | 0.00 | 0.00 | 0.00 | 82 | 1017.0 |
| 20260902020041 | 79 | 203 | 3.0 | 7.0 | 0.00 | 0.00 | 0.00 | 83 | 1016.9 |
| 20260902014541 | 79 | 230 | 2.0 | 7.0 | 0.00 | 0.00 | 0.00 | 84 | 1017.0 |
| 20260902013040 | 77 | 194 | 3.0 | 6.0 | 0.00 | 0.00 | 0.00 | 87 | 1016.9 |
| 20260902011540 | 76 | 199 | 1.0 | 8.0 | 0.00 | 0.00 | 0.00 | 90 | 1016.8 |
| 20260902010046 | 76 | 161 | 0.0 | 2.0 | 0.00 | 0.00 | 0.00 | 90 | 1016.9 |
| 20260902004539 | 76 | 161 | 0.0 | 2.0 | 0.00 | 0.00 | 0.00 | 90 | 1016.9 |
| 20260902003038 | 77 | 161 | 0.0 | 2.0 | 0.00 | 0.00 | 0.00 | 89 | 1016.9 |
| 20260902001537 | 78 | 161 | 0.0 | 2.0 | 0.00 | 0.00 | 0.00 | 88 | 1017.0 |
| 20260902000038 | 79 | 161 | 0.0 | 2.0 | 0.00 | 0.00 | 0.00 | 87 | 1017.2 |
| 20260901234534 | 81 | 161 | 0.0 | 3.0 | 0.00 | 0.00 | 0.00 | 85 | 1017.3 |
| 20260901233032 | 82 | 161 | 0.0 | 3.0 | 0.00 | 0.00 | 0.00 | 85 | 1017.5 |
| 20260901231532 | 84 | 161 | 0.0 | 5.0 | 0.00 | 0.00 | 0.00 | 82 | 1017.4 |